Time;durP1;ratioP1;P1;durP2;ratioP2;P2;SDS_P1;SDS_P2;PMS_P1;PMS_P2;Temp;Humidity;BMP_temperature;BMP_pressure;BME280_temperature;BME280_humidity;BME280_pressure;Samples;Min_cycle;Max_cycle;Signal;HPM_P1;HPM_P2
2020/12/19 00:00:09;;;;;;;24.77;10.43;;;5.20;99.90;;;;;;4188541;28;20476;-54
2020/12/19 00:02:10;;;;;;;19.43;8.93;;;5.10;99.90;;;;;;4190182;28;20465;-54
2020/12/19 00:04:12;;;;;;;22.80;10.50;;;5.20;99.90;;;;;;4187191;28;20463;-54
2020/12/19 00:06:13;;;;;;;21.47;10.63;;;5.20;99.90;;;;;;4190729;28;21001;-54
2020/12/19 00:08:14;;;;;;;20.93;9.83;;;5.20;99.90;;;;;;4189103;28;20468;-54
2020/12/19 00:10:17;;;;;;;20.87;10.20;;;5.20;99.90;;;;;;4192278;28;20531;-56
2020/12/19 00:12:20;;;;;;;22.20;9.90;;;5.20;99.90;;;;;;4189550;28;20459;-57
2020/12/19 00:14:22;;;;;;;23.63;10.77;;;5.20;99.90;;;;;;4190109;28;20537;-55
2020/12/19 00:16:29;;;;;;;21.40;10.30;;;5.20;99.90;;;;;;4191123;28;20476;-59
2020/12/19 00:18:30;;;;;;;20.60;10.60;;;5.20;99.90;;;;;;4188658;28;20558;-61
2020/12/19 00:20:31;;;;;;;21.43;10.07;;;5.20;99.90;;;;;;4189222;28;20468;-54
2020/12/19 00:22:33;;;;;;;22.00;10.57;;;5.20;99.90;;;;;;4189893;28;20475;-54
2020/12/19 00:24:34;;;;;;;20.50;10.63;;;5.20;99.90;;;;;;4192430;28;20498;-54
2020/12/19 00:26:39;;;;;;;19.53;9.50;;;5.30;99.90;;;;;;4192952;28;20475;-54
2020/12/19 00:28:40;;;;;;;21.17;10.33;;;5.30;99.90;;;;;;4191783;28;20479;-54
2020/12/19 00:30:42;;;;;;;20.00;9.93;;;5.30;99.90;;;;;;4193801;28;20503;-54
2020/12/19 00:32:44;;;;;;;20.20;10.67;;;5.30;99.90;;;;;;4193510;28;20480;-54
2020/12/19 00:34:45;;;;;;;20.13;10.37;;;5.30;99.90;;;;;;4193419;28;20497;-54
2020/12/19 00:36:46;;;;;;;23.13;10.77;;;5.30;99.90;;;;;;4191748;28;20503;-54
2020/12/19 00:38:48;;;;;;;23.90;11.43;;;5.30;99.90;;;;;;4193601;28;20468;-54
2020/12/19 00:40:49;;;;;;;25.23;12.20;;;5.30;99.90;;;;;;4193062;28;20495;-55
2020/12/19 00:42:52;;;;;;;24.50;11.13;;;5.30;99.90;;;;;;4191810;28;20468;-54
2020/12/19 00:44:53;;;;;;;25.63;11.77;;;5.30;99.90;;;;;;4193082;28;20477;-54
2020/12/19 00:46:54;;;;;;;21.43;11.33;;;5.20;99.90;;;;;;4193425;28;20472;-54
2020/12/19 00:48:55;;;;;;;23.93;11.93;;;5.20;99.90;;;;;;4192539;28;20475;-54
2020/12/19 00:50:57;;;;;;;24.20;11.37;;;5.20;99.90;;;;;;4190886;28;20830;-54
2020/12/19 00:52:58;;;;;;;24.27;12.03;;;5.20;99.90;;;;;;4193649;28;20466;-55
2020/12/19 00:54:59;;;;;;;21.53;11.33;;;5.20;99.90;;;;;;4192183;28;20468;-54
2020/12/19 00:57:01;;;;;;;23.33;11.70;;;5.20;99.90;;;;;;4192774;28;20942;-54
2020/12/19 00:59:03;;;;;;;22.93;11.50;;;5.20;99.90;;;;;;4192085;28;20503;-54
2020/12/19 01:01:04;;;;;;;23.07;11.13;;;5.20;99.90;;;;;;4194086;28;20463;-55
2020/12/19 01:03:06;;;;;;;24.50;11.83;;;5.20;99.90;;;;;;4189564;28;20509;-54
2020/12/19 01:05:09;;;;;;;24.70;11.63;;;5.20;99.90;;;;;;4193922;28;20503;-54
2020/12/19 01:07:11;;;;;;;21.63;10.83;;;5.20;99.90;;;;;;4191656;28;20555;-54
2020/12/19 01:09:12;;;;;;;19.77;10.17;;;5.20;99.90;;;;;;4190577;28;20538;-54
2020/12/19 01:11:14;;;;;;;20.90;10.37;;;5.20;99.90;;;;;;4190734;28;20551;-54
2020/12/19 01:13:16;;;;;;;22.77;11.60;;;5.20;99.90;;;;;;4191724;28;20480;-54
2020/12/19 01:15:18;;;;;;;25.87;12.17;;;5.20;99.90;;;;;;4190822;28;20478;-54
2020/12/19 01:17:19;;;;;;;21.57;10.53;;;5.20;99.90;;;;;;4193917;28;20468;-54
2020/12/19 01:19:20;;;;;;;24.70;11.63;;;5.20;99.90;;;;;;4192149;28;20467;-54
2020/12/19 01:21:25;;;;;;;26.43;11.80;;;5.20;99.90;;;;;;4190603;28;20472;-57
2020/12/19 01:23:26;;;;;;;23.50;11.13;;;5.20;99.90;;;;;;4191379;28;21309;-54
2020/12/19 01:25:28;;;;;;;25.20;11.93;;;5.20;99.90;;;;;;4189572;28;20476;-54
2020/12/19 01:27:29;;;;;;;21.47;11.37;;;5.20;99.90;;;;;;4193879;28;20483;-54
2020/12/19 01:29:30;;;;;;;23.17;11.93;;;5.20;99.90;;;;;;4193086;28;20661;-54
2020/12/19 01:31:33;;;;;;;24.77;11.63;;;5.20;99.90;;;;;;4191857;28;20503;-54
2020/12/19 01:33:35;;;;;;;22.03;11.67;;;5.20;99.90;;;;;;4189310;28;20472;-54
2020/12/19 01:35:37;;;;;;;23.60;11.87;;;5.20;99.90;;;;;;4190931;28;20463;-54
2020/12/19 01:37:38;;;;;;;24.50;11.93;;;5.20;99.90;;;;;;4192221;28;20463;-54
2020/12/19 01:39:39;;;;;;;24.90;11.60;;;5.20;99.90;;;;;;4193377;28;20463;-54
2020/12/19 01:41:40;;;;;;;23.50;11.70;;;5.20;99.90;;;;;;4191356;28;20459;-54
2020/12/19 01:43:47;;;;;;;24.17;11.90;;;5.20;99.90;;;;;;4191108;28;20479;-55
2020/12/19 01:45:49;;;;;;;24.30;12.47;;;5.20;99.90;;;;;;4191126;28;21404;-62
2020/12/19 01:47:55;;;;;;;27.00;12.17;;;5.20;99.90;;;;;;4192440;28;20475;-55
2020/12/19 01:49:56;;;;;;;24.20;11.97;;;5.20;99.90;;;;;;4191807;28;20472;-55
2020/12/19 01:52:00;;;;;;;28.00;12.77;;;5.20;99.90;;;;;;4191790;28;20495;-54
2020/12/19 01:54:02;;;;;;;24.87;11.63;;;5.10;99.90;;;;;;4193229;28;20471;-54
2020/12/19 01:56:03;;;;;;;21.70;11.10;;;5.20;99.90;;;;;;4190098;28;20814;-54
2020/12/19 01:58:05;;;;;;;23.23;11.70;;;5.20;99.90;;;;;;4192414;28;20470;-54
2020/12/19 02:00:06;;;;;;;24.83;11.63;;;5.20;99.90;;;;;;4192053;28;20470;-54
2020/12/19 02:02:09;;;;;;;22.80;11.43;;;5.20;99.90;;;;;;4189176;28;20520;-59
2020/12/19 02:04:11;;;;;;;25.63;12.43;;;5.20;99.90;;;;;;4191468;28;21945;-54
2020/12/19 02:06:14;;;;;;;23.37;11.67;;;5.10;99.90;;;;;;4191310;28;20492;-54
2020/12/19 02:08:15;;;;;;;22.37;11.37;;;5.10;99.90;;;;;;4192253;28;20479;-54
2020/12/19 02:10:16;;;;;;;23.07;11.47;;;5.10;99.90;;;;;;4191873;28;21182;-55
2020/12/19 02:12:18;;;;;;;24.60;11.13;;;5.10;99.90;;;;;;4191772;28;20469;-54
2020/12/19 02:14:20;;;;;;;22.10;11.53;;;5.10;99.90;;;;;;4191700;28;20475;-54
2020/12/19 02:16:21;;;;;;;23.43;11.73;;;5.10;99.90;;;;;;4190327;28;21170;-54
2020/12/19 02:18:23;;;;;;;22.87;11.03;;;5.10;99.90;;;;;;4189598;28;20475;-55
2020/12/19 02:20:25;;;;;;;24.23;11.33;;;5.10;99.90;;;;;;4190881;28;20861;-54
2020/12/19 02:22:26;;;;;;;21.73;10.93;;;5.10;99.90;;;;;;4191643;28;20966;-54
2020/12/19 02:24:29;;;;;;;20.53;10.43;;;5.10;99.90;;;;;;4189997;28;20554;-54
2020/12/19 02:26:29;;;;;;;22.27;11.43;;;5.10;99.90;;;;;;4189471;28;20907;-54
2020/12/19 02:28:31;;;;;;;20.93;10.10;;;5.10;99.90;;;;;;4190558;28;20473;-55
2020/12/19 02:30:33;;;;;;;20.00;10.40;;;5.10;99.90;;;;;;4190900;28;20228;-54
2020/12/19 02:32:34;;;;;;;19.17;10.43;;;5.10;99.90;;;;;;4190724;28;20471;-54
2020/12/19 02:34:35;;;;;;;22.33;10.67;;;5.10;99.90;;;;;;4191480;28;20493;-54
2020/12/19 02:36:38;;;;;;;18.93;9.73;;;5.10;99.90;;;;;;4190696;28;20468;-54
2020/12/19 02:38:39;;;;;;;22.63;10.40;;;5.10;99.90;;;;;;4190643;28;20954;-54
2020/12/19 02:40:41;;;;;;;21.67;10.53;;;5.10;99.90;;;;;;4190948;28;20467;-54
2020/12/19 02:42:43;;;;;;;23.07;10.57;;;5.10;99.90;;;;;;4192561;28;20786;-54
2020/12/19 02:44:45;;;;;;;22.03;10.90;;;5.10;99.90;;;;;;4190973;28;20472;-54
2020/12/19 02:46:46;;;;;;;24.27;11.27;;;5.10;99.90;;;;;;4189675;28;20938;-54
2020/12/19 02:48:48;;;;;;;22.50;11.47;;;5.10;99.90;;;;;;4189342;28;21018;-54
2020/12/19 02:50:49;;;;;;;21.53;10.90;;;5.10;99.90;;;;;;4191141;28;20488;-54
2020/12/19 02:52:51;;;;;;;20.97;10.77;;;5.10;99.90;;;;;;4190820;28;20510;-54
2020/12/19 02:54:52;;;;;;;22.80;11.57;;;5.10;99.90;;;;;;4189634;28;20522;-54
2020/12/19 02:56:54;;;;;;;22.00;10.87;;;5.10;99.90;;;;;;4189878;28;20996;-54
2020/12/19 02:58:55;;;;;;;24.00;10.80;;;5.10;99.90;;;;;;4189565;28;20487;-54
2020/12/19 03:00:57;;;;;;;20.63;10.83;;;5.10;99.90;;;;;;4190125;28;20467;-54
2020/12/19 03:02:58;;;;;;;23.67;10.67;;;5.10;99.90;;;;;;4191914;28;21171;-54
2020/12/19 03:04:59;;;;;;;20.40;10.23;;;5.10;99.90;;;;;;4191067;28;20471;-54
2020/12/19 03:07:00;;;;;;;22.07;11.13;;;5.10;99.90;;;;;;4191169;28;20502;-54
2020/12/19 03:09:02;;;;;;;21.60;10.43;;;5.10;99.90;;;;;;4190535;28;21005;-54
2020/12/19 03:11:04;;;;;;;24.53;10.87;;;5.10;99.90;;;;;;4189571;28;20483;-54
2020/12/19 03:13:06;;;;;;;20.23;10.03;;;5.10;99.90;;;;;;4190535;28;20484;-54
2020/12/19 03:15:08;;;;;;;19.07;10.03;;;5.10;99.90;;;;;;4192078;28;20469;-54
2020/12/19 03:17:09;;;;;;;22.17;9.93;;;5.20;99.90;;;;;;4189606;28;20467;-54
2020/12/19 03:19:11;;;;;;;20.07;10.33;;;5.20;99.90;;;;;;4190642;28;20465;-54
2020/12/19 03:21:12;;;;;;;20.97;9.63;;;5.20;99.90;;;;;;4189602;28;20550;-54
2020/12/19 03:23:14;;;;;;;17.93;9.40;;;5.10;99.90;;;;;;4189710;28;20518;-54
2020/12/19 03:25:15;;;;;;;20.07;9.33;;;5.20;99.90;;;;;;4189341;28;20472;-54
2020/12/19 03:27:16;;;;;;;19.77;9.70;;;5.20;99.90;;;;;;4189407;28;20482;-54
2020/12/19 03:29:18;;;;;;;18.70;8.90;;;5.20;99.90;;;;;;4191654;28;20466;-54
2020/12/19 03:31:20;;;;;;;19.83;9.43;;;5.20;99.90;;;;;;4188910;28;20496;-55
2020/12/19 03:33:21;;;;;;;17.70;9.07;;;5.20;99.90;;;;;;4191000;28;20473;-54
2020/12/19 03:35:24;;;;;;;22.53;10.20;;;5.20;99.90;;;;;;4190540;28;20834;-54
2020/12/19 03:37:26;;;;;;;19.53;10.37;;;5.20;99.90;;;;;;4189126;28;20489;-54
2020/12/19 03:39:27;;;;;;;22.63;10.73;;;5.20;99.90;;;;;;4190702;28;21886;-54
2020/12/19 03:41:28;;;;;;;19.73;10.23;;;5.10;99.90;;;;;;4189421;28;20941;-54
2020/12/19 03:43:29;;;;;;;23.80;11.30;;;5.10;99.90;;;;;;4190245;28;20468;-54
2020/12/19 03:45:32;;;;;;;20.97;10.43;;;5.10;99.90;;;;;;4191354;28;21172;-54
2020/12/19 03:47:33;;;;;;;23.23;10.50;;;5.10;99.90;;;;;;4188694;28;20480;-54
2020/12/19 03:49:35;;;;;;;21.83;10.40;;;5.10;99.90;;;;;;4190344;28;20469;-54
2020/12/19 03:51:36;;;;;;;19.67;9.67;;;5.10;99.90;;;;;;4189751;28;20560;-56
2020/12/19 03:53:38;;;;;;;19.80;9.63;;;5.10;99.90;;;;;;4190043;28;20486;-54
2020/12/19 03:55:39;;;;;;;20.03;9.63;;;5.10;99.90;;;;;;4190121;28;20487;-54
2020/12/19 03:57:41;;;;;;;20.70;10.23;;;5.10;99.90;;;;;;4188949;28;20475;-55
2020/12/19 03:59:42;;;;;;;20.43;10.43;;;5.10;99.90;;;;;;4188658;28;20473;-54
2020/12/19 04:01:44;;;;;;;24.47;10.73;;;5.10;99.90;;;;;;4191191;28;20472;-54
2020/12/19 04:03:46;;;;;;;21.40;10.30;;;5.10;99.90;;;;;;4191671;28;21171;-54
2020/12/19 04:05:47;;;;;;;21.67;10.87;;;5.10;99.90;;;;;;4191361;28;20492;-54
2020/12/19 04:07:48;;;;;;;24.03;11.70;;;5.10;99.90;;;;;;4189619;28;20474;-54
2020/12/19 04:09:50;;;;;;;23.87;11.30;;;5.10;99.90;;;;;;4189047;28;20476;-56
2020/12/19 04:11:51;;;;;;;25.47;11.60;;;5.10;99.90;;;;;;4190280;28;20497;-56
2020/12/19 04:13:52;;;;;;;24.23;12.17;;;5.10;99.90;;;;;;4189168;28;20463;-54
2020/12/19 04:15:53;;;;;;;22.23;10.37;;;5.10;99.90;;;;;;4189978;28;20468;-61
2020/12/19 04:17:56;;;;;;;21.70;10.97;;;5.10;99.90;;;;;;4190100;28;20463;-55
2020/12/19 04:19:57;;;;;;;26.60;11.83;;;5.10;99.90;;;;;;4188651;28;20483;-56
2020/12/19 04:21:59;;;;;;;22.37;11.33;;;5.10;99.90;;;;;;4189573;28;20474;-58
2020/12/19 04:24:00;;;;;;;21.73;10.60;;;5.10;99.90;;;;;;4191397;28;20532;-57
2020/12/19 04:26:02;;;;;;;23.13;11.30;;;5.00;99.90;;;;;;4189303;28;20498;-54
2020/12/19 04:28:03;;;;;;;23.77;11.70;;;5.00;99.90;;;;;;4188950;28;20464;-54
2020/12/19 04:30:05;;;;;;;22.27;10.77;;;5.00;99.90;;;;;;4187869;28;21343;-53
2020/12/19 04:32:06;;;;;;;22.73;10.73;;;5.00;99.90;;;;;;4190066;28;20542;-54
2020/12/19 04:34:08;;;;;;;24.63;11.70;;;5.00;99.90;;;;;;4190336;28;21162;-53
2020/12/19 04:36:10;;;;;;;25.37;11.13;;;5.00;99.90;;;;;;4190174;28;20775;-53
2020/12/19 04:38:11;;;;;;;24.97;11.87;;;5.00;99.90;;;;;;4188901;28;20472;-53
2020/12/19 04:40:12;;;;;;;23.00;10.77;;;4.90;99.90;;;;;;4189446;28;20468;-53
2020/12/19 04:42:14;;;;;;;24.17;12.07;;;5.00;99.90;;;;;;4189577;28;20552;-53
2020/12/19 04:44:16;;;;;;;23.13;11.27;;;4.90;99.90;;;;;;4191085;28;20475;-53
2020/12/19 04:46:21;;;;;;;23.13;11.23;;;4.90;99.90;;;;;;4189710;28;20492;-53
2020/12/19 04:48:24;;;;;;;25.13;11.27;;;4.90;99.90;;;;;;4189765;28;20459;-53
2020/12/19 04:50:27;;;;;;;23.50;11.27;;;4.90;99.90;;;;;;4190841;28;20468;-53
2020/12/19 04:52:29;;;;;;;21.70;10.43;;;4.80;99.90;;;;;;4188967;28;20468;-53
2020/12/19 04:54:30;;;;;;;21.53;10.00;;;4.80;99.90;;;;;;4188592;28;20472;-54
2020/12/19 04:56:32;;;;;;;23.40;10.30;;;4.80;99.90;;;;;;4189487;28;20469;-53
2020/12/19 04:58:33;;;;;;;19.90;10.07;;;4.80;99.90;;;;;;4188003;28;20473;-53
2020/12/19 05:00:35;;;;;;;20.27;10.10;;;4.90;99.90;;;;;;4189235;28;20469;-53
2020/12/19 05:02:36;;;;;;;19.33;9.17;;;4.90;99.90;;;;;;4189339;28;20490;-53
2020/12/19 05:04:37;;;;;;;18.63;9.03;;;4.90;99.90;;;;;;4189747;28;21144;-54
2020/12/19 05:06:40;;;;;;;19.97;9.77;;;4.90;99.90;;;;;;4187983;28;20495;-57
2020/12/19 05:08:41;;;;;;;18.37;9.37;;;4.90;99.90;;;;;;4189852;28;20479;-53
2020/12/19 05:10:43;;;;;;;20.57;9.77;;;4.90;99.90;;;;;;4191077;28;20475;-53
2020/12/19 05:12:51;;;;;;;21.53;9.87;;;4.90;99.90;;;;;;4193871;28;20480;-53
2020/12/19 05:14:53;;;;;;;20.00;10.10;;;4.90;99.90;;;;;;4192902;28;20802;-53
2020/12/19 05:16:55;;;;;;;19.27;10.47;;;5.00;99.90;;;;;;4193037;28;20532;-53
2020/12/19 05:18:57;;;;;;;20.27;10.13;;;4.90;99.90;;;;;;4193075;28;20471;-53
2020/12/19 05:20:58;;;;;;;23.63;11.50;;;4.90;99.90;;;;;;4192705;28;20467;-53
2020/12/19 05:23:00;;;;;;;25.00;12.00;;;5.00;99.90;;;;;;4193369;28;20475;-53
2020/12/19 05:25:03;;;;;;;24.07;11.20;;;5.00;99.90;;;;;;4191364;28;20463;-53
2020/12/19 05:27:05;;;;;;;24.43;10.90;;;5.00;99.90;;;;;;4193969;28;20476;-53
2020/12/19 05:29:06;;;;;;;23.53;11.67;;;5.00;99.90;;;;;;4192000;28;21113;-53
2020/12/19 05:31:09;;;;;;;27.57;13.63;;;4.90;99.90;;;;;;4190224;28;20485;-53
2020/12/19 05:33:11;;;;;;;26.27;12.63;;;4.90;99.90;;;;;;4191181;28;20537;-53
2020/12/19 05:35:14;;;;;;;26.33;13.00;;;4.90;99.90;;;;;;4191400;28;22477;-53
2020/12/19 05:37:15;;;;;;;26.53;12.77;;;4.90;99.90;;;;;;4193281;28;20494;-53
2020/12/19 05:39:17;;;;;;;22.63;11.47;;;4.90;99.90;;;;;;4193169;28;20467;-53
2020/12/19 05:41:23;;;;;;;23.57;11.93;;;4.90;99.90;;;;;;4191680;28;20463;-54
2020/12/19 05:43:25;;;;;;;26.10;12.00;;;4.90;99.90;;;;;;4191300;28;20475;-53
2020/12/19 05:45:28;;;;;;;21.90;10.50;;;4.90;99.90;;;;;;4190558;28;20488;-54
2020/12/19 05:47:29;;;;;;;23.17;10.93;;;5.00;99.90;;;;;;4191042;28;20476;-53
2020/12/19 05:49:31;;;;;;;26.93;12.03;;;5.00;99.90;;;;;;4189795;28;22277;-53
2020/12/19 05:51:34;;;;;;;23.27;11.27;;;5.00;99.90;;;;;;4193443;28;20982;-54
2020/12/19 05:53:37;;;;;;;24.37;11.27;;;5.00;99.90;;;;;;4191536;28;20471;-54
2020/12/19 05:55:40;;;;;;;26.23;12.17;;;4.90;99.90;;;;;;4191536;28;20563;-54
2020/12/19 05:57:42;;;;;;;23.80;11.73;;;4.90;99.90;;;;;;4191679;28;20471;-53
2020/12/19 05:59:47;;;;;;;26.17;11.77;;;4.90;99.90;;;;;;4190706;28;20471;-53
2020/12/19 06:01:50;;;;;;;23.40;11.93;;;4.90;99.90;;;;;;4191531;28;20565;-53
2020/12/19 06:03:55;;;;;;;22.77;11.50;;;4.90;99.90;;;;;;4192126;28;20484;-54
2020/12/19 06:05:57;;;;;;;27.60;12.83;;;4.90;99.90;;;;;;4191865;28;21143;-53
2020/12/19 06:08:00;;;;;;;25.27;11.53;;;4.90;99.90;;;;;;4191562;28;20491;-53
2020/12/19 06:10:02;;;;;;;22.90;12.07;;;4.90;99.90;;;;;;4191384;28;20482;-53
2020/12/19 06:12:10;;;;;;;24.07;12.13;;;4.90;99.90;;;;;;4190103;28;20495;-54
2020/12/19 06:14:18;;;;;;;26.47;11.70;;;4.80;99.90;;;;;;4191403;28;20462;-53
2020/12/19 06:16:21;;;;;;;24.03;11.90;;;4.80;99.90;;;;;;4191929;28;20563;-54
2020/12/19 06:18:32;;;;;;;24.97;11.47;;;4.80;99.90;;;;;;4190068;28;21674;-54
2020/12/19 06:20:34;;;;;;;27.30;12.00;;;4.80;99.90;;;;;;4191966;28;20464;-54
2020/12/19 06:22:35;;;;;;;24.50;11.43;;;4.80;99.90;;;;;;4191602;28;20475;-54
2020/12/19 06:24:41;;;;;;;24.27;11.83;;;4.80;99.90;;;;;;4188876;28;20569;-54
2020/12/19 06:26:42;;;;;;;23.53;11.67;;;4.80;99.90;;;;;;4190048;28;20815;-54
2020/12/19 06:28:48;;;;;;;23.53;11.37;;;4.70;99.90;;;;;;4191197;28;20482;-55
2020/12/19 06:30:50;;;;;;;24.83;12.13;;;4.80;99.90;;;;;;4190085;28;20498;-53
2020/12/19 06:33:06;;;;;;;26.33;11.93;;;4.70;99.90;;;;;;4191047;28;20475;-53
2020/12/19 06:35:09;;;;;;;27.33;11.87;;;4.70;99.90;;;;;;4191116;28;20490;-53
2020/12/19 06:37:18;;;;;;;26.90;12.57;;;4.70;99.90;;;;;;4191173;28;21041;-53
2020/12/19 06:39:20;;;;;;;23.43;11.73;;;4.70;99.90;;;;;;4192493;28;22470;-53
2020/12/19 06:41:44;;;;;;;23.20;11.87;;;4.70;99.90;;;;;;4191928;28;20471;-53
2020/12/19 06:44:07;;;;;;;21.10;10.83;;;4.70;99.90;;;;;;4191248;28;20551;-53
2020/12/19 06:46:30;;;;;;;23.87;11.00;;;4.70;99.90;;;;;;4190244;28;20459;-55
2020/12/19 06:48:33;;;;;;;21.43;11.07;;;4.70;99.90;;;;;;4188998;28;20468;-58
2020/12/19 06:50:56;;;;;;;21.60;10.63;;;4.60;99.90;;;;;;4190646;28;20484;-58
2020/12/19 06:52:59;;;;;;;23.47;11.37;;;4.70;99.90;;;;;;4189642;28;20464;-58
2020/12/19 06:55:17;;;;;;;26.67;12.17;;;4.70;99.90;;;;;;4192698;28;20551;-61
2020/12/19 06:57:23;;;;;;;23.47;11.13;;;4.70;99.90;;;;;;4188607;28;20486;-56
2020/12/19 06:59:26;;;;;;;23.10;11.20;;;4.70;99.90;;;;;;4190822;28;20513;-59
2020/12/19 07:01:30;;;;;;;26.20;12.30;;;4.70;99.90;;;;;;4188074;28;20476;-59
2020/12/19 07:03:39;;;;;;;25.27;12.10;;;4.70;99.90;;;;;;4189788;28;20518;-58
2020/12/19 07:05:41;;;;;;;25.53;11.50;;;4.70;99.90;;;;;;4190604;28;20492;-58
2020/12/19 07:07:43;;;;;;;24.00;11.53;;;4.70;99.90;;;;;;4189900;28;20902;-58
2020/12/19 07:09:55;;;;;;;25.13;11.27;;;4.70;99.90;;;;;;4189580;28;20487;-57
2020/12/19 07:11:57;;;;;;;23.37;12.10;;;4.70;99.90;;;;;;4190070;28;20485;-58
2020/12/19 07:13:58;;;;;;;24.13;11.37;;;4.70;99.90;;;;;;4188520;28;20479;-58
2020/12/19 07:16:00;;;;;;;23.00;11.37;;;4.70;99.90;;;;;;4188979;28;20468;-56
2020/12/19 07:18:02;;;;;;;23.13;10.50;;;4.70;99.90;;;;;;4189155;28;20464;-56
2020/12/19 07:20:03;;;;;;;22.90;11.07;;;4.60;99.90;;;;;;4189737;28;20611;-59
2020/12/19 07:22:05;;;;;;;26.27;12.00;;;4.70;99.90;;;;;;4188520;28;20467;-58
2020/12/19 07:24:07;;;;;;;23.23;10.47;;;4.70;99.90;;;;;;4188873;28;20468;-62
2020/12/19 07:26:08;;;;;;;23.63;10.93;;;4.70;99.90;;;;;;4188796;28;20465;-58
2020/12/19 07:28:09;;;;;;;18.60;9.60;;;4.70;99.90;;;;;;4188389;28;20471;-59
2020/12/19 07:30:11;;;;;;;19.63;10.13;;;4.70;99.90;;;;;;4188630;28;20472;-56
2020/12/19 07:32:13;;;;;;;28.03;11.90;;;4.70;99.90;;;;;;4187505;28;20994;-57
2020/12/19 07:34:14;;;;;;;22.97;11.40;;;4.70;99.90;;;;;;4187082;28;20464;-57
2020/12/19 07:36:17;;;;;;;22.87;10.97;;;4.70;99.90;;;;;;4189592;28;21114;-57
2020/12/19 07:38:20;;;;;;;23.00;10.97;;;4.70;99.90;;;;;;4188855;28;20462;-57
2020/12/19 07:40:23;;;;;;;20.17;10.87;;;4.80;99.90;;;;;;4187679;28;20474;-57
2020/12/19 07:42:24;;;;;;;20.53;10.37;;;4.80;99.90;;;;;;4187954;28;20527;-57
2020/12/19 07:44:25;;;;;;;21.03;10.30;;;4.80;99.90;;;;;;4187059;28;21512;-57
2020/12/19 07:46:27;;;;;;;19.17;10.23;;;4.80;99.90;;;;;;4188040;28;20494;-57
2020/12/19 07:48:29;;;;;;;20.73;10.43;;;4.80;99.90;;;;;;4186786;28;20463;-57
2020/12/19 07:50:32;;;;;;;20.93;10.17;;;4.80;99.90;;;;;;4188112;28;20480;-56
2020/12/19 07:52:33;;;;;;;22.50;10.83;;;4.80;99.90;;;;;;4188919;28;20564;-57
2020/12/19 07:54:36;;;;;;;20.20;10.40;;;4.80;99.90;;;;;;4188491;28;20987;-56
2020/12/19 07:56:38;;;;;;;21.10;11.13;;;4.90;99.90;;;;;;4187995;28;21187;-56
2020/12/19 07:58:40;;;;;;;23.90;11.27;;;4.90;99.90;;;;;;4189183;28;20815;-56
2020/12/19 08:00:41;;;;;;;23.03;11.00;;;4.90;99.90;;;;;;4189569;28;20544;-57
2020/12/19 08:02:43;;;;;;;21.67;10.80;;;4.90;99.90;;;;;;4189463;28;20475;-56
2020/12/19 08:04:57;;;;;;;17.90;10.03;;;4.90;99.90;;;;;;4187046;28;20536;-57
2020/12/19 08:06:59;;;;;;;21.83;11.30;;;4.90;99.90;;;;;;4188388;28;20499;-57
2020/12/19 08:09:01;;;;;;;18.83;10.33;;;4.90;99.90;;;;;;4188519;28;20469;-56
2020/12/19 08:11:04;;;;;;;22.80;10.43;;;5.00;99.90;;;;;;4188210;28;20488;-58
2020/12/19 08:13:09;;;;;;;20.70;10.47;;;4.90;99.90;;;;;;4189118;28;20479;-56
2020/12/19 08:15:15;;;;;;;20.77;10.93;;;5.00;99.90;;;;;;4188476;28;20822;-57
2020/12/19 08:17:17;;;;;;;22.10;11.30;;;5.00;99.90;;;;;;4188272;28;20532;-57
2020/12/19 08:19:24;;;;;;;23.50;11.03;;;5.10;99.90;;;;;;4189399;28;20939;-57
2020/12/19 08:21:27;;;;;;;23.20;10.87;;;5.10;99.90;;;;;;4188376;28;20483;-57
2020/12/19 08:23:28;;;;;;;19.83;10.23;;;5.10;99.90;;;;;;4189206;28;20488;-56
2020/12/19 08:25:30;;;;;;;20.73;10.20;;;5.20;99.90;;;;;;4189358;28;20479;-56
2020/12/19 08:27:43;;;;;;;16.37;9.50;;;5.20;99.90;;;;;;4188293;28;20468;-56
2020/12/19 08:29:59;;;;;;;20.07;9.77;;;5.20;99.90;;;;;;4189811;28;20479;-56
2020/12/19 08:32:01;;;;;;;19.23;9.63;;;5.30;99.90;;;;;;4188870;28;20835;-57
2020/12/19 08:34:10;;;;;;;19.57;9.43;;;5.30;99.90;;;;;;4190073;28;20476;-56
2020/12/19 08:36:13;;;;;;;17.37;9.40;;;5.30;99.90;;;;;;4189724;28;20488;-57
2020/12/19 08:38:19;;;;;;;17.93;9.67;;;5.40;99.90;;;;;;4189066;28;20472;-57
2020/12/19 08:40:21;;;;;;;17.30;9.40;;;5.40;99.90;;;;;;4189343;28;21526;-56
2020/12/19 08:42:29;;;;;;;20.13;10.00;;;5.50;99.90;;;;;;4187746;28;20469;-57
2020/12/19 08:44:31;;;;;;;18.37;9.60;;;5.50;99.90;;;;;;4191392;28;20459;-56
2020/12/19 08:46:32;;;;;;;19.93;9.90;;;5.50;99.90;;;;;;4193836;28;20458;-57
2020/12/19 08:48:34;;;;;;;18.90;10.20;;;5.50;99.90;;;;;;4191728;28;20541;-57
2020/12/19 08:50:40;;;;;;;21.03;10.97;;;5.50;99.90;;;;;;4193136;28;20549;-57
2020/12/19 08:52:41;;;;;;;20.77;11.03;;;5.50;99.90;;;;;;4193142;28;20555;-58
2020/12/19 08:54:57;;;;;;;17.07;9.60;;;5.50;99.90;;;;;;4189485;28;20549;-60
2020/12/19 08:56:59;;;;;;;22.43;10.83;;;5.50;99.90;;;;;;4190275;28;20538;-58
2020/12/19 08:59:00;;;;;;;20.47;11.07;;;5.50;99.90;;;;;;4191859;28;20468;-57
2020/12/19 09:01:14;;;;;;;19.70;10.63;;;5.60;99.90;;;;;;4190631;28;20973;-57
2020/12/19 09:03:15;;;;;;;21.00;10.50;;;5.60;99.90;;;;;;4191731;28;22485;-58
2020/12/19 09:05:30;;;;;;;22.10;11.23;;;5.60;99.90;;;;;;4192751;28;20476;-56
2020/12/19 09:07:31;;;;;;;19.73;10.37;;;5.60;99.90;;;;;;4192999;28;20463;-57
2020/12/19 09:09:33;;;;;;;21.17;10.43;;;5.60;99.90;;;;;;4191199;28;21090;-57
2020/12/19 09:11:35;;;;;;;21.23;11.40;;;5.70;99.90;;;;;;4190388;28;20500;-58
2020/12/19 09:13:37;;;;;;;20.57;10.37;;;5.80;99.90;;;;;;4191348;28;20478;-57
2020/12/19 09:15:39;;;;;;;21.27;9.77;;;5.80;99.90;;;;;;4191958;28;20573;-57
2020/12/19 09:17:40;;;;;;;20.10;10.07;;;5.90;99.90;;;;;;4190814;28;20470;-58
2020/12/19 09:19:41;;;;;;;19.47;10.57;;;6.00;99.90;;;;;;4191374;28;20558;-58
2020/12/19 09:21:53;;;;;;;20.83;10.77;;;6.10;99.90;;;;;;4190765;28;20459;-58
2020/12/19 09:23:54;;;;;;;20.50;11.20;;;6.10;99.90;;;;;;4192958;28;20460;-57
2020/12/19 09:25:57;;;;;;;21.47;11.23;;;6.10;99.90;;;;;;4190882;28;20482;-57
2020/12/19 09:27:59;;;;;;;20.40;11.23;;;6.10;99.90;;;;;;4192157;28;20471;-58
2020/12/19 09:30:01;;;;;;;22.93;11.27;;;6.10;99.90;;;;;;4190279;28;20477;-58
2020/12/19 09:32:03;;;;;;;18.90;10.47;;;6.00;99.90;;;;;;4191020;28;20504;-59
2020/12/19 09:34:05;;;;;;;21.07;10.77;;;5.90;99.90;;;;;;4192819;28;21414;-58
2020/12/19 09:36:06;;;;;;;19.17;11.03;;;5.90;99.90;;;;;;4190324;28;20496;-58
2020/12/19 09:38:08;;;;;;;18.27;10.40;;;5.90;99.90;;;;;;4192478;28;20464;-58
2020/12/19 09:40:10;;;;;;;19.43;10.83;;;5.90;99.90;;;;;;4192442;28;20474;-58
2020/12/19 09:42:11;;;;;;;21.50;11.57;;;5.80;99.90;;;;;;4190634;28;20475;-58
2020/12/19 09:44:13;;;;;;;17.80;10.13;;;5.80;99.90;;;;;;4191783;28;20468;-58
2020/12/19 09:46:14;;;;;;;19.27;10.87;;;5.80;99.90;;;;;;4192345;28;20478;-58
2020/12/19 09:48:16;;;;;;;19.37;10.60;;;5.80;99.90;;;;;;4190731;28;20477;-58
2020/12/19 09:50:17;;;;;;;20.13;11.50;;;5.90;99.90;;;;;;4190195;28;20476;-58
2020/12/19 09:52:18;;;;;;;19.67;10.90;;;5.90;99.90;;;;;;4190443;28;20487;-58
2020/12/19 09:54:20;;;;;;;21.00;10.53;;;6.00;99.90;;;;;;4191470;28;20541;-58
2020/12/19 09:56:21;;;;;;;19.27;10.43;;;6.10;99.90;;;;;;4191186;28;20842;-58
2020/12/19 09:58:22;;;;;;;20.70;10.70;;;6.10;99.90;;;;;;4191118;28;20533;-58
2020/12/19 10:00:24;;;;;;;18.60;9.90;;;6.20;99.90;;;;;;4192620;28;20466;-58
2020/12/19 10:02:26;;;;;;;20.03;11.10;;;6.30;99.90;;;;;;4190741;28;20475;-58
2020/12/19 10:04:27;;;;;;;18.57;9.93;;;6.30;99.90;;;;;;4192341;28;20784;-58
2020/12/19 10:06:29;;;;;;;20.20;10.87;;;6.40;99.90;;;;;;4191191;28;20490;-58
2020/12/19 10:08:30;;;;;;;19.57;11.30;;;6.40;99.90;;;;;;4191198;28;20476;-58
2020/12/19 10:10:34;;;;;;;21.20;11.53;;;6.40;99.90;;;;;;4190109;28;20471;-58
2020/12/19 10:12:36;;;;;;;21.10;11.03;;;6.50;99.90;;;;;;4189368;28;20493;-58
2020/12/19 10:14:37;;;;;;;22.00;11.27;;;6.50;99.90;;;;;;4190386;28;20472;-58
2020/12/19 10:16:39;;;;;;;21.80;11.17;;;6.60;99.90;;;;;;4192122;28;20482;-58
2020/12/19 10:18:41;;;;;;;21.13;10.67;;;6.60;99.90;;;;;;4188816;28;20473;-58
2020/12/19 10:20:42;;;;;;;21.80;11.17;;;6.70;99.90;;;;;;4190051;28;20466;-60
2020/12/19 10:22:43;;;;;;;21.80;11.90;;;6.70;99.90;;;;;;4189114;28;20701;-58
2020/12/19 10:24:45;;;;;;;21.33;11.53;;;6.70;99.90;;;;;;4191646;28;20459;-58
2020/12/19 10:26:47;;;;;;;24.30;11.80;;;6.80;99.90;;;;;;4189467;28;20491;-58
2020/12/19 10:28:48;;;;;;;21.70;12.10;;;6.80;99.90;;;;;;4190188;28;20478;-58
2020/12/19 10:30:49;;;;;;;21.63;11.57;;;6.80;99.90;;;;;;4189919;28;20538;-58